This is the latest recevied weather packets stored in our database for station/object DL1AIE-13. If no packets are shown the sender has not sent any weather packets the latest 10 day(s).
| Time | Temp. | Humidity | Pressure | Rain* | Wind** | Luminosity | Snow |
|---|---|---|---|---|---|---|---|
| 1777623742 | 16.11° C | 39% | 1028.8 hPa | 0 mm | - | - | - |
| 1777623138 | 15.56° C | 39% | 1028.7 hPa | 0 mm | - | - | - |
| 1777622555 | 15° C | 40% | 1028.8 hPa | 0 mm | - | - | - |
| 1777621950 | 15° C | 42% | 1028.7 hPa | 0 mm | - | - | - |
| 1777621347 | 14.44° C | 44% | 1028.8 hPa | 0 mm | - | - | - |
| 1777620742 | 14.44° C | 47% | 1028.8 hPa | 0 mm | - | - | - |
| 1777620139 | 13.89° C | 47% | 1028.8 hPa | 0 mm | - | - | - |
| 1777619554 | 13.89° C | 47% | 1028.9 hPa | 0 mm | - | - | - |
| 1777618951 | 13.33° C | 47% | 1028.9 hPa | 0 mm | - | - | - |
| 1777618346 | 13.33° C | 48% | 1028.9 hPa | 0 mm | - | - | - |
| 1777617742 | 12.78° C | 51% | 1028.9 hPa | 0 mm | - | - | - |
| 1777617138 | 12.78° C | 53% | 1028.8 hPa | 0 mm | - | - | - |
| 1777616554 | 11.67° C | 57% | 1028.8 hPa | 0 mm | - | - | - |
| 1777615951 | 10.56° C | 64% | 1028.7 hPa | 0 mm | - | - | - |
| 1777615347 | 9.44° C | 67% | 1028.6 hPa | 0 mm | - | - | - |
| 1777614744 | 9.44° C | 66% | 1028.6 hPa | 0 mm | - | - | - |
| 1777614144 | 8.89° C | 66% | 1028.7 hPa | 0 mm | - | - | - |
| 1777613536 | 8.33° C | 71% | 1028.6 hPa | 0 mm | - | - | - |
| 1777612952 | 7.22° C | 73% | 1028.7 hPa | 0 mm | - | - | - |
| 1777612349 | 6.11° C | 77% | 1028.7 hPa | 0 mm | - | - | - |
| 1777611745 | 5.56° C | 80% | 1028.6 hPa | 0 mm | - | - | - |
| 1777611141 | 5° C | 82% | 1028.5 hPa | 0 mm | - | - | - |
| 1777609953 | 4.44° C | 82% | 1028.7 hPa | 0 mm | - | - | - |
| 1777609350 | 3.89° C | 86% | 1028.5 hPa | 0 mm | - | - | - |
| 1777608746 | 4.44° C | 82% | 1028.4 hPa | 0 mm | - | - | - |
* Rain latest hour (hover to see other rain measurements)
** Current wind speed in m/s (hover to see current wind gust speed)